sensor_id;sensor_type;location;lat;lon;timestamp;temperature;humidity
16863;DHT22;52193;48.216;-1.698;2022-12-18T00:02:12;3.50;96.00
16863;DHT22;52193;48.216;-1.698;2022-12-18T00:04:39;3.50;95.90
16863;DHT22;52193;48.216;-1.698;2022-12-18T00:07:07;3.50;96.00
16863;DHT22;52193;48.216;-1.698;2022-12-18T00:09:34;3.50;96.30
16863;DHT22;52193;48.216;-1.698;2022-12-18T00:12:02;3.50;96.10
16863;DHT22;52193;48.216;-1.698;2022-12-18T00:14:29;3.50;96.10
16863;DHT22;52193;48.216;-1.698;2022-12-18T00:16:55;3.50;96.10
16863;DHT22;52193;48.216;-1.698;2022-12-18T00:19:24;3.50;96.00
16863;DHT22;52193;48.216;-1.698;2022-12-18T00:21:51;3.50;96.10
16863;DHT22;52193;48.216;-1.698;2022-12-18T00:24:19;3.50;96.10
16863;DHT22;52193;48.216;-1.698;2022-12-18T00:26:46;3.50;96.00
16863;DHT22;52193;48.216;-1.698;2022-12-18T00:29:13;3.50;96.10
16863;DHT22;52193;48.216;-1.698;2022-12-18T00:31:42;3.60;96.10
16863;DHT22;52193;48.216;-1.698;2022-12-18T00:34:10;3.50;96.10
16863;DHT22;52193;48.216;-1.698;2022-12-18T00:36:38;3.50;96.10
16863;DHT22;52193;48.216;-1.698;2022-12-18T00:39:05;3.50;96.00
16863;DHT22;52193;48.216;-1.698;2022-12-18T00:41:34;3.50;96.10
16863;DHT22;52193;48.216;-1.698;2022-12-18T00:44:18;3.50;96.10
16863;DHT22;52193;48.216;-1.698;2022-12-18T00:46:46;3.60;96.10
16863;DHT22;52193;48.216;-1.698;2022-12-18T00:49:13;3.50;96.10
16863;DHT22;52193;48.216;-1.698;2022-12-18T00:51:41;3.60;96.20
16863;DHT22;52193;48.216;-1.698;2022-12-18T00:54:08;3.50;96.00
16863;DHT22;52193;48.216;-1.698;2022-12-18T00:56:38;3.50;96.10
16863;DHT22;52193;48.216;-1.698;2022-12-18T00:59:05;3.50;96.10
16863;DHT22;52193;48.216;-1.698;2022-12-18T01:01:32;3.50;96.10
16863;DHT22;52193;48.216;-1.698;2022-12-18T01:04:00;3.50;96.10
16863;DHT22;52193;48.216;-1.698;2022-12-18T01:06:28;3.50;96.10
16863;DHT22;52193;48.216;-1.698;2022-12-18T01:08:55;3.50;96.10
16863;DHT22;52193;48.216;-1.698;2022-12-18T01:11:22;3.40;96.10
16863;DHT22;52193;48.216;-1.698;2022-12-18T01:13:51;3.50;96.30
16863;DHT22;52193;48.216;-1.698;2022-12-18T01:16:19;3.50;96.20
16863;DHT22;52193;48.216;-1.698;2022-12-18T01:18:46;3.50;96.10
16863;DHT22;52193;48.216;-1.698;2022-12-18T01:21:14;3.50;96.20
16863;DHT22;52193;48.216;-1.698;2022-12-18T01:23:44;3.50;96.10
16863;DHT22;52193;48.216;-1.698;2022-12-18T01:26:13;3.40;96.20
16863;DHT22;52193;48.216;-1.698;2022-12-18T01:28:40;3.40;96.20
16863;DHT22;52193;48.216;-1.698;2022-12-18T01:31:14;3.40;96.20
16863;DHT22;52193;48.216;-1.698;2022-12-18T01:33:41;3.40;96.20
16863;DHT22;52193;48.216;-1.698;2022-12-18T01:36:14;3.50;96.20
16863;DHT22;52193;48.216;-1.698;2022-12-18T01:38:41;3.50;96.20
16863;DHT22;52193;48.216;-1.698;2022-12-18T01:41:08;3.50;96.10
16863;DHT22;52193;48.216;-1.698;2022-12-18T01:43:43;3.40;96.10
16863;DHT22;52193;48.216;-1.698;2022-12-18T01:46:12;3.40;96.10
16863;DHT22;52193;48.216;-1.698;2022-12-18T01:48:40;3.40;96.20
16863;DHT22;52193;48.216;-1.698;2022-12-18T01:51:09;3.50;96.20
16863;DHT22;52193;48.216;-1.698;2022-12-18T01:53:37;3.50;96.20
16863;DHT22;52193;48.216;-1.698;2022-12-18T01:56:06;3.50;96.10
16863;DHT22;52193;48.216;-1.698;2022-12-18T01:58:41;3.50;96.10
16863;DHT22;52193;48.216;-1.698;2022-12-18T02:01:13;3.50;96.10
16863;DHT22;52193;48.216;-1.698;2022-12-18T02:03:41;3.50;96.20
16863;DHT22;52193;48.216;-1.698;2022-12-18T02:06:13;3.50;96.20
16863;DHT22;52193;48.216;-1.698;2022-12-18T02:08:51;3.50;96.20
16863;DHT22;52193;48.216;-1.698;2022-12-18T02:11:28;3.50;96.20
16863;DHT22;52193;48.216;-1.698;2022-12-18T02:14:06;3.60;96.50
16863;DHT22;52193;48.216;-1.698;2022-12-18T02:16:42;3.50;96.10
16863;DHT22;52193;48.216;-1.698;2022-12-18T02:19:35;3.50;96.10
16863;DHT22;52193;48.216;-1.698;2022-12-18T02:22:17;3.50;96.20
16863;DHT22;52193;48.216;-1.698;2022-12-18T02:24:59;3.40;96.10
16863;DHT22;52193;48.216;-1.698;2022-12-18T02:27:30;3.50;96.20
16863;DHT22;52193;48.216;-1.698;2022-12-18T02:29:58;3.40;96.20
16863;DHT22;52193;48.216;-1.698;2022-12-18T02:32:29;3.50;96.20
16863;DHT22;52193;48.216;-1.698;2022-12-18T02:34:59;3.40;96.20
16863;DHT22;52193;48.216;-1.698;2022-12-18T02:37:29;3.40;96.30
16863;DHT22;52193;48.216;-1.698;2022-12-18T02:39:58;3.40;96.40
16863;DHT22;52193;48.216;-1.698;2022-12-18T02:42:29;3.30;96.20
16863;DHT22;52193;48.216;-1.698;2022-12-18T02:44:56;3.40;96.40
16863;DHT22;52193;48.216;-1.698;2022-12-18T02:47:26;3.40;96.40
16863;DHT22;52193;48.216;-1.698;2022-12-18T02:50:00;3.40;96.40
16863;DHT22;52193;48.216;-1.698;2022-12-18T02:52:35;3.50;96.40
16863;DHT22;52193;48.216;-1.698;2022-12-18T02:55:15;3.50;96.30
16863;DHT22;52193;48.216;-1.698;2022-12-18T02:57:49;3.40;96.30
16863;DHT22;52193;48.216;-1.698;2022-12-18T03:00:20;3.40;96.50
16863;DHT22;52193;48.216;-1.698;2022-12-18T03:02:52;3.40;96.30
16863;DHT22;52193;48.216;-1.698;2022-12-18T03:05:23;3.40;96.40
16863;DHT22;52193;48.216;-1.698;2022-12-18T03:07:57;3.50;96.40
16863;DHT22;52193;48.216;-1.698;2022-12-18T03:10:27;3.50;96.40
16863;DHT22;52193;48.216;-1.698;2022-12-18T03:13:00;3.50;96.40
16863;DHT22;52193;48.216;-1.698;2022-12-18T03:15:30;3.50;96.40
16863;DHT22;52193;48.216;-1.698;2022-12-18T03:18:02;3.50;96.30
16863;DHT22;52193;48.216;-1.698;2022-12-18T03:20:32;3.50;96.40
16863;DHT22;52193;48.216;-1.698;2022-12-18T03:23:06;3.60;96.40
16863;DHT22;52193;48.216;-1.698;2022-12-18T03:25:35;3.60;96.30
16863;DHT22;52193;48.216;-1.698;2022-12-18T03:28:08;3.60;96.30
16863;DHT22;52193;48.216;-1.698;2022-12-18T03:30:37;3.60;96.30
16863;DHT22;52193;48.216;-1.698;2022-12-18T03:33:08;3.60;96.20
16863;DHT22;52193;48.216;-1.698;2022-12-18T03:35:39;3.60;96.30
16863;DHT22;52193;48.216;-1.698;2022-12-18T03:38:06;3.60;96.30
16863;DHT22;52193;48.216;-1.698;2022-12-18T03:40:43;3.60;96.40
16863;DHT22;52193;48.216;-1.698;2022-12-18T03:43:18;3.70;96.40
16863;DHT22;52193;48.216;-1.698;2022-12-18T03:45:51;3.70;96.40
16863;DHT22;52193;48.216;-1.698;2022-12-18T03:48:25;3.60;96.30
16863;DHT22;52193;48.216;-1.698;2022-12-18T03:50:57;3.60;96.40
16863;DHT22;52193;48.216;-1.698;2022-12-18T03:53:32;3.70;96.40
16863;DHT22;52193;48.216;-1.698;2022-12-18T03:56:02;3.60;96.40
16863;DHT22;52193;48.216;-1.698;2022-12-18T03:58:33;3.60;96.50
16863;DHT22;52193;48.216;-1.698;2022-12-18T04:01:05;3.70;96.50
16863;DHT22;52193;48.216;-1.698;2022-12-18T04:03:36;3.80;96.50
16863;DHT22;52193;48.216;-1.698;2022-12-18T04:06:04;3.80;96.50
16863;DHT22;52193;48.216;-1.698;2022-12-18T04:08:33;3.70;96.40
16863;DHT22;52193;48.216;-1.698;2022-12-18T04:11:01;3.70;96.50
16863;DHT22;52193;48.216;-1.698;2022-12-18T04:13:32;3.70;96.40
16863;DHT22;52193;48.216;-1.698;2022-12-18T04:15:59;3.70;96.60
16863;DHT22;52193;48.216;-1.698;2022-12-18T04:18:26;3.70;96.50
16863;DHT22;52193;48.216;-1.698;2022-12-18T04:20:53;3.60;96.80
16863;DHT22;52193;48.216;-1.698;2022-12-18T04:23:20;3.60;96.60
16863;DHT22;52193;48.216;-1.698;2022-12-18T04:25:47;3.70;96.60
16863;DHT22;52193;48.216;-1.698;2022-12-18T04:28:14;3.70;96.60
16863;DHT22;52193;48.216;-1.698;2022-12-18T04:30:43;3.70;96.60
16863;DHT22;52193;48.216;-1.698;2022-12-18T04:33:10;3.80;96.80
16863;DHT22;52193;48.216;-1.698;2022-12-18T04:35:38;3.80;96.60
16863;DHT22;52193;48.216;-1.698;2022-12-18T04:38:06;3.80;96.60
16863;DHT22;52193;48.216;-1.698;2022-12-18T04:40:34;3.80;96.60
16863;DHT22;52193;48.216;-1.698;2022-12-18T04:43:01;3.80;96.60
16863;DHT22;52193;48.216;-1.698;2022-12-18T04:45:28;3.90;96.60
16863;DHT22;52193;48.216;-1.698;2022-12-18T04:47:58;3.90;96.60
16863;DHT22;52193;48.216;-1.698;2022-12-18T04:50:25;3.90;96.70
16863;DHT22;52193;48.216;-1.698;2022-12-18T04:52:52;4.00;96.70
16863;DHT22;52193;48.216;-1.698;2022-12-18T04:55:19;3.90;96.60
16863;DHT22;52193;48.216;-1.698;2022-12-18T04:57:46;4.00;96.70
16863;DHT22;52193;48.216;-1.698;2022-12-18T05:00:14;3.90;96.60
16863;DHT22;52193;48.216;-1.698;2022-12-18T05:02:41;3.90;96.60
16863;DHT22;52193;48.216;-1.698;2022-12-18T05:05:10;3.80;96.60
16863;DHT22;52193;48.216;-1.698;2022-12-18T05:07:37;3.90;96.80
16863;DHT22;52193;48.216;-1.698;2022-12-18T05:10:05;3.90;96.80
16863;DHT22;52193;48.216;-1.698;2022-12-18T05:12:33;3.90;96.70
16863;DHT22;52193;48.216;-1.698;2022-12-18T05:15:20;3.90;96.80
16863;DHT22;52193;48.216;-1.698;2022-12-18T05:17:47;3.80;96.70
16863;DHT22;52193;48.216;-1.698;2022-12-18T05:20:15;3.90;96.90
16863;DHT22;52193;48.216;-1.698;2022-12-18T05:22:43;4.00;96.80
16863;DHT22;52193;48.216;-1.698;2022-12-18T05:25:10;3.90;96.80
16863;DHT22;52193;48.216;-1.698;2022-12-18T05:27:37;4.10;96.90
16863;DHT22;52193;48.216;-1.698;2022-12-18T05:30:05;4.00;96.70
16863;DHT22;52193;48.216;-1.698;2022-12-18T05:32:32;4.00;96.80
16863;DHT22;52193;48.216;-1.698;2022-12-18T05:34:59;4.00;96.80
16863;DHT22;52193;48.216;-1.698;2022-12-18T05:37:28;4.00;96.80
16863;DHT22;52193;48.216;-1.698;2022-12-18T05:39:55;4.00;96.80
16863;DHT22;52193;48.216;-1.698;2022-12-18T05:42:22;4.10;96.90
16863;DHT22;52193;48.216;-1.698;2022-12-18T05:44:49;4.00;96.90
16863;DHT22;52193;48.216;-1.698;2022-12-18T05:47:16;4.10;97.00
16863;DHT22;52193;48.216;-1.698;2022-12-18T05:49:43;4.10;97.00
16863;DHT22;52193;48.216;-1.698;2022-12-18T05:52:09;4.20;97.00
16863;DHT22;52193;48.216;-1.698;2022-12-18T05:54:38;4.10;97.00
16863;DHT22;52193;48.216;-1.698;2022-12-18T05:57:05;4.20;97.00
16863;DHT22;52193;48.216;-1.698;2022-12-18T05:59:32;4.20;96.90
16863;DHT22;52193;48.216;-1.698;2022-12-18T06:01:59;4.20;97.00
16863;DHT22;52193;48.216;-1.698;2022-12-18T06:04:27;4.20;97.10
16863;DHT22;52193;48.216;-1.698;2022-12-18T06:06:54;4.20;97.00
16863;DHT22;52193;48.216;-1.698;2022-12-18T06:09:21;4.20;97.10
16863;DHT22;52193;48.216;-1.698;2022-12-18T06:11:51;4.20;97.10
16863;DHT22;52193;48.216;-1.698;2022-12-18T06:14:18;4.20;97.20
16863;DHT22;52193;48.216;-1.698;2022-12-18T06:16:45;4.30;97.20
16863;DHT22;52193;48.216;-1.698;2022-12-18T06:19:15;4.20;97.20
16863;DHT22;52193;48.216;-1.698;2022-12-18T06:21:43;4.30;97.20
16863;DHT22;52193;48.216;-1.698;2022-12-18T06:24:10;4.20;97.10
16863;DHT22;52193;48.216;-1.698;2022-12-18T06:26:38;4.30;97.20
16863;DHT22;52193;48.216;-1.698;2022-12-18T06:29:06;4.30;97.20
16863;DHT22;52193;48.216;-1.698;2022-12-18T06:31:33;4.30;97.30
16863;DHT22;52193;48.216;-1.698;2022-12-18T06:34:02;4.30;97.40
16863;DHT22;52193;48.216;-1.698;2022-12-18T06:36:30;4.30;97.30
16863;DHT22;52193;48.216;-1.698;2022-12-18T06:38:58;4.30;97.40
16863;DHT22;52193;48.216;-1.698;2022-12-18T06:41:25;4.40;97.30
16863;DHT22;52193;48.216;-1.698;2022-12-18T06:43:52;4.30;97.40
16863;DHT22;52193;48.216;-1.698;2022-12-18T06:46:20;4.30;97.50
16863;DHT22;52193;48.216;-1.698;2022-12-18T06:48:49;4.30;97.60
16863;DHT22;52193;48.216;-1.698;2022-12-18T06:51:18;4.30;97.50
16863;DHT22;52193;48.216;-1.698;2022-12-18T06:53:45;4.30;97.60
16863;DHT22;52193;48.216;-1.698;2022-12-18T06:56:12;4.40;97.80
16863;DHT22;52193;48.216;-1.698;2022-12-18T06:58:39;4.40;97.70
16863;DHT22;52193;48.216;-1.698;2022-12-18T07:01:08;4.50;97.70
16863;DHT22;52193;48.216;-1.698;2022-12-18T07:03:36;4.50;97.70
16863;DHT22;52193;48.216;-1.698;2022-12-18T07:06:04;4.40;97.80
16863;DHT22;52193;48.216;-1.698;2022-12-18T07:08:32;4.40;97.80
16863;DHT22;52193;48.216;-1.698;2022-12-18T07:10:59;4.50;97.90
16863;DHT22;52193;48.216;-1.698;2022-12-18T07:13:29;4.50;97.90
16863;DHT22;52193;48.216;-1.698;2022-12-18T07:16:03;4.60;98.00
16863;DHT22;52193;48.216;-1.698;2022-12-18T07:18:30;4.60;98.10
16863;DHT22;52193;48.216;-1.698;2022-12-18T07:21:02;4.60;98.00
16863;DHT22;52193;48.216;-1.698;2022-12-18T07:23:30;4.60;98.00
16863;DHT22;52193;48.216;-1.698;2022-12-18T07:26:01;4.60;98.30
16863;DHT22;52193;48.216;-1.698;2022-12-18T07:28:28;4.60;98.20
16863;DHT22;52193;48.216;-1.698;2022-12-18T07:30:55;4.50;98.40
16863;DHT22;52193;48.216;-1.698;2022-12-18T07:33:22;4.50;98.30
16863;DHT22;52193;48.216;-1.698;2022-12-18T07:35:49;4.60;98.40
16863;DHT22;52193;48.216;-1.698;2022-12-18T07:38:18;4.60;98.50
16863;DHT22;52193;48.216;-1.698;2022-12-18T07:40:45;4.50;98.40
16863;DHT22;52193;48.216;-1.698;2022-12-18T07:43:12;4.50;98.60
16863;DHT22;52193;48.216;-1.698;2022-12-18T07:45:39;4.60;98.70
16863;DHT22;52193;48.216;-1.698;2022-12-18T07:48:05;4.60;98.80
16863;DHT22;52193;48.216;-1.698;2022-12-18T07:50:32;4.60;98.70
16863;DHT22;52193;48.216;-1.698;2022-12-18T07:52:59;4.60;98.80
16863;DHT22;52193;48.216;-1.698;2022-12-18T07:55:30;4.60;98.90
16863;DHT22;52193;48.216;-1.698;2022-12-18T07:58:00;4.60;98.90
16863;DHT22;52193;48.216;-1.698;2022-12-18T08:00:28;4.60;99.00
16863;DHT22;52193;48.216;-1.698;2022-12-18T08:02:55;4.60;99.10
16863;DHT22;52193;48.216;-1.698;2022-12-18T08:05:21;4.70;99.10
16863;DHT22;52193;48.216;-1.698;2022-12-18T08:07:49;4.70;99.20
16863;DHT22;52193;48.216;-1.698;2022-12-18T08:10:16;4.70;99.20
16863;DHT22;52193;48.216;-1.698;2022-12-18T08:12:44;4.80;99.30
16863;DHT22;52193;48.216;-1.698;2022-12-18T08:15:11;4.80;99.30
16863;DHT22;52193;48.216;-1.698;2022-12-18T08:17:38;4.70;99.30
16863;DHT22;52193;48.216;-1.698;2022-12-18T08:20:06;4.70;99.40
16863;DHT22;52193;48.216;-1.698;2022-12-18T08:22:34;4.70;99.60
16863;DHT22;52193;48.216;-1.698;2022-12-18T08:25:01;4.70;99.70
16863;DHT22;52193;48.216;-1.698;2022-12-18T08:27:28;4.80;99.70
16863;DHT22;52193;48.216;-1.698;2022-12-18T08:29:56;4.80;99.80
16863;DHT22;52193;48.216;-1.698;2022-12-18T08:32:24;4.80;99.90
16863;DHT22;52193;48.216;-1.698;2022-12-18T08:34:51;4.90;99.90
16863;DHT22;52193;48.216;-1.698;2022-12-18T08:37:19;4.80;99.90
16863;DHT22;52193;48.216;-1.698;2022-12-18T08:39:46;4.80;99.90
16863;DHT22;52193;48.216;-1.698;2022-12-18T08:42:13;4.90;99.90
16863;DHT22;52193;48.216;-1.698;2022-12-18T08:44:59;4.90;99.90
16863;DHT22;52193;48.216;-1.698;2022-12-18T08:47:26;4.90;99.90
16863;DHT22;52193;48.216;-1.698;2022-12-18T08:49:53;4.90;99.90
16863;DHT22;52193;48.216;-1.698;2022-12-18T08:52:20;5.00;99.90
16863;DHT22;52193;48.216;-1.698;2022-12-18T08:54:47;5.00;99.90
16863;DHT22;52193;48.216;-1.698;2022-12-18T08:57:14;5.00;99.90
16863;DHT22;52193;48.216;-1.698;2022-12-18T08:59:41;5.00;99.90
16863;DHT22;52193;48.216;-1.698;2022-12-18T09:02:10;5.10;99.90
16863;DHT22;52193;48.216;-1.698;2022-12-18T09:04:38;5.10;99.90
16863;DHT22;52193;48.216;-1.698;2022-12-18T09:07:05;5.10;99.90
16863;DHT22;52193;48.216;-1.698;2022-12-18T09:09:32;5.10;99.90
16863;DHT22;52193;48.216;-1.698;2022-12-18T09:11:59;5.10;99.90
16863;DHT22;52193;48.216;-1.698;2022-12-18T09:14:26;5.20;99.90
16863;DHT22;52193;48.216;-1.698;2022-12-18T09:16:53;5.20;99.90
16863;DHT22;52193;48.216;-1.698;2022-12-18T09:19:22;5.20;99.90
16863;DHT22;52193;48.216;-1.698;2022-12-18T09:21:48;5.30;99.90
16863;DHT22;52193;48.216;-1.698;2022-12-18T09:24:16;5.20;99.90
16863;DHT22;52193;48.216;-1.698;2022-12-18T09:26:43;5.20;99.90
16863;DHT22;52193;48.216;-1.698;2022-12-18T09:29:10;5.20;99.90
16863;DHT22;52193;48.216;-1.698;2022-12-18T09:31:38;5.10;99.90
16863;DHT22;52193;48.216;-1.698;2022-12-18T09:34:05;5.20;99.90
16863;DHT22;52193;48.216;-1.698;2022-12-18T09:36:34;5.20;99.90
16863;DHT22;52193;48.216;-1.698;2022-12-18T09:39:01;5.20;99.90
16863;DHT22;52193;48.216;-1.698;2022-12-18T09:41:40;5.20;99.90
16863;DHT22;52193;48.216;-1.698;2022-12-18T09:44:15;5.20;99.90
16863;DHT22;52193;48.216;-1.698;2022-12-18T09:46:45;5.30;99.90
16863;DHT22;52193;48.216;-1.698;2022-12-18T09:49:16;5.30;99.90
16863;DHT22;52193;48.216;-1.698;2022-12-18T09:51:49;5.40;99.90
16863;DHT22;52193;48.216;-1.698;2022-12-18T09:54:21;5.40;99.90
16863;DHT22;52193;48.216;-1.698;2022-12-18T09:56:50;5.30;99.90
16863;DHT22;52193;48.216;-1.698;2022-12-18T09:59:22;5.30;99.90
16863;DHT22;52193;48.216;-1.698;2022-12-18T10:01:50;5.30;99.90
16863;DHT22;52193;48.216;-1.698;2022-12-18T10:04:17;5.30;99.90
16863;DHT22;52193;48.216;-1.698;2022-12-18T10:06:52;5.30;99.90
16863;DHT22;52193;48.216;-1.698;2022-12-18T10:09:30;5.40;99.90
16863;DHT22;52193;48.216;-1.698;2022-12-18T10:12:05;5.50;99.90
16863;DHT22;52193;48.216;-1.698;2022-12-18T10:14:47;5.50;99.90
16863;DHT22;52193;48.216;-1.698;2022-12-18T10:17:22;5.50;99.90
16863;DHT22;52193;48.216;-1.698;2022-12-18T10:19:55;5.40;99.90
16863;DHT22;52193;48.216;-1.698;2022-12-18T10:22:39;5.40;99.90
16863;DHT22;52193;48.216;-1.698;2022-12-18T10:25:19;5.50;99.90
16863;DHT22;52193;48.216;-1.698;2022-12-18T10:27:51;5.50;99.90
16863;DHT22;52193;48.216;-1.698;2022-12-18T10:30:19;5.50;99.90
16863;DHT22;52193;48.216;-1.698;2022-12-18T10:32:47;5.50;99.90
16863;DHT22;52193;48.216;-1.698;2022-12-18T10:35:18;5.50;99.90
16863;DHT22;52193;48.216;-1.698;2022-12-18T10:38:20;5.50;99.90
16863;DHT22;52193;48.216;-1.698;2022-12-18T10:40:52;5.50;99.90
16863;DHT22;52193;48.216;-1.698;2022-12-18T10:43:21;5.50;99.90
16863;DHT22;52193;48.216;-1.698;2022-12-18T10:46:12;5.50;99.90
16863;DHT22;52193;48.216;-1.698;2022-12-18T10:48:49;5.50;99.90
16863;DHT22;52193;48.216;-1.698;2022-12-18T10:51:21;5.60;99.90
16863;DHT22;52193;48.216;-1.698;2022-12-18T10:53:55;5.60;99.90
16863;DHT22;52193;48.216;-1.698;2022-12-18T10:56:26;5.60;99.90
16863;DHT22;52193;48.216;-1.698;2022-12-18T10:58:59;5.60;99.90
16863;DHT22;52193;48.216;-1.698;2022-12-18T11:01:27;5.60;99.90
16863;DHT22;52193;48.216;-1.698;2022-12-18T11:04:02;5.50;99.90
16863;DHT22;52193;48.216;-1.698;2022-12-18T11:06:34;5.50;99.90
16863;DHT22;52193;48.216;-1.698;2022-12-18T11:09:04;5.60;99.90
16863;DHT22;52193;48.216;-1.698;2022-12-18T11:11:32;5.60;99.90
16863;DHT22;52193;48.216;-1.698;2022-12-18T11:14:03;5.60;99.90
16863;DHT22;52193;48.216;-1.698;2022-12-18T11:16:34;5.60;99.90
16863;DHT22;52193;48.216;-1.698;2022-12-18T11:19:20;5.70;99.90
16863;DHT22;52193;48.216;-1.698;2022-12-18T11:21:48;5.70;99.90
16863;DHT22;52193;48.216;-1.698;2022-12-18T11:24:21;5.70;99.90
16863;DHT22;52193;48.216;-1.698;2022-12-18T11:26:49;5.80;99.90
16863;DHT22;52193;48.216;-1.698;2022-12-18T11:29:18;5.80;99.90
16863;DHT22;52193;48.216;-1.698;2022-12-18T11:31:49;5.80;99.90
16863;DHT22;52193;48.216;-1.698;2022-12-18T11:34:21;5.80;99.90
16863;DHT22;52193;48.216;-1.698;2022-12-18T11:36:49;5.80;99.90
16863;DHT22;52193;48.216;-1.698;2022-12-18T11:39:22;5.80;99.90
16863;DHT22;52193;48.216;-1.698;2022-12-18T11:41:56;5.70;99.90
16863;DHT22;52193;48.216;-1.698;2022-12-18T11:44:42;5.80;99.90
16863;DHT22;52193;48.216;-1.698;2022-12-18T11:47:16;5.80;99.90
16863;DHT22;52193;48.216;-1.698;2022-12-18T11:49:48;5.90;99.90
16863;DHT22;52193;48.216;-1.698;2022-12-18T11:52:18;5.90;99.90
16863;DHT22;52193;48.216;-1.698;2022-12-18T11:54:51;5.90;99.90
16863;DHT22;52193;48.216;-1.698;2022-12-18T11:57:29;5.90;99.90
16863;DHT22;52193;48.216;-1.698;2022-12-18T12:00:07;5.80;99.90
16863;DHT22;52193;48.216;-1.698;2022-12-18T12:05:45;5.90;99.90
16863;DHT22;52193;48.216;-1.698;2022-12-18T12:08:18;5.90;99.90
16863;DHT22;52193;48.216;-1.698;2022-12-18T12:10:56;6.00;99.90
16863;DHT22;52193;48.216;-1.698;2022-12-18T12:13:34;5.90;99.90
16863;DHT22;52193;48.216;-1.698;2022-12-18T12:16:13;5.90;99.90
16863;DHT22;52193;48.216;-1.698;2022-12-18T12:19:02;5.80;99.90
16863;DHT22;52193;48.216;-1.698;2022-12-18T12:21:39;5.90;99.90
16863;DHT22;52193;48.216;-1.698;2022-12-18T12:24:18;5.90;99.90
16863;DHT22;52193;48.216;-1.698;2022-12-18T12:26:57;5.90;99.90
16863;DHT22;52193;48.216;-1.698;2022-12-18T12:29:37;6.00;99.90
16863;DHT22;52193;48.216;-1.698;2022-12-18T12:32:20;6.10;99.90
16863;DHT22;52193;48.216;-1.698;2022-12-18T12:34:57;6.10;99.90
16863;DHT22;52193;48.216;-1.698;2022-12-18T12:37:36;6.10;99.90
16863;DHT22;52193;48.216;-1.698;2022-12-18T12:40:10;6.20;99.90
16863;DHT22;52193;48.216;-1.698;2022-12-18T12:42:44;6.10;99.90
16863;DHT22;52193;48.216;-1.698;2022-12-18T12:45:34;6.20;99.90
16863;DHT22;52193;48.216;-1.698;2022-12-18T12:48:05;6.20;99.90
16863;DHT22;52193;48.216;-1.698;2022-12-18T12:50:34;6.20;99.90
16863;DHT22;52193;48.216;-1.698;2022-12-18T12:53:06;6.30;99.90
16863;DHT22;52193;48.216;-1.698;2022-12-18T12:55:35;6.30;99.90
16863;DHT22;52193;48.216;-1.698;2022-12-18T12:58:10;6.40;99.90
16863;DHT22;52193;48.216;-1.698;2022-12-18T13:00:41;6.30;99.90
16863;DHT22;52193;48.216;-1.698;2022-12-18T13:03:27;6.30;99.90
16863;DHT22;52193;48.216;-1.698;2022-12-18T13:05:58;6.40;99.90
16863;DHT22;52193;48.216;-1.698;2022-12-18T13:08:29;6.40;99.90
16863;DHT22;52193;48.216;-1.698;2022-12-18T13:10:57;6.50;99.90
16863;DHT22;52193;48.216;-1.698;2022-12-18T13:13:50;6.50;99.90
16863;DHT22;52193;48.216;-1.698;2022-12-18T13:16:20;6.50;99.90
16863;DHT22;52193;48.216;-1.698;2022-12-18T13:18:49;6.60;99.90
16863;DHT22;52193;48.216;-1.698;2022-12-18T13:21:21;6.60;99.90
16863;DHT22;52193;48.216;-1.698;2022-12-18T13:23:50;6.60;99.90
16863;DHT22;52193;48.216;-1.698;2022-12-18T13:26:35;6.50;99.90
16863;DHT22;52193;48.216;-1.698;2022-12-18T13:29:04;6.50;99.90
16863;DHT22;52193;48.216;-1.698;2022-12-18T13:31:58;6.50;99.90
16863;DHT22;52193;48.216;-1.698;2022-12-18T13:34:26;6.50;99.90
16863;DHT22;52193;48.216;-1.698;2022-12-18T13:36:56;6.50;99.90
16863;DHT22;52193;48.216;-1.698;2022-12-18T13:39:34;6.50;99.90
16863;DHT22;52193;48.216;-1.698;2022-12-18T13:45:42;6.60;99.90
16863;DHT22;52193;48.216;-1.698;2022-12-18T13:48:23;6.60;99.90
16863;DHT22;52193;48.216;-1.698;2022-12-18T13:50:58;6.60;99.90
16863;DHT22;52193;48.216;-1.698;2022-12-18T13:53:28;6.60;99.90
16863;DHT22;52193;48.216;-1.698;2022-12-18T13:55:56;6.60;99.90
16863;DHT22;52193;48.216;-1.698;2022-12-18T13:58:24;6.60;99.90
16863;DHT22;52193;48.216;-1.698;2022-12-18T14:00:52;6.60;99.90
16863;DHT22;52193;48.216;-1.698;2022-12-18T14:03:22;6.70;99.90
16863;DHT22;52193;48.216;-1.698;2022-12-18T14:06:03;6.70;99.90
16863;DHT22;52193;48.216;-1.698;2022-12-18T14:08:38;6.80;99.90
16863;DHT22;52193;48.216;-1.698;2022-12-18T14:11:06;6.80;99.90
16863;DHT22;52193;48.216;-1.698;2022-12-18T14:13:36;6.80;99.90
16863;DHT22;52193;48.216;-1.698;2022-12-18T14:16:06;6.80;99.90
16863;DHT22;52193;48.216;-1.698;2022-12-18T14:18:43;6.80;99.90
16863;DHT22;52193;48.216;-1.698;2022-12-18T14:21:18;6.80;99.90
16863;DHT22;52193;48.216;-1.698;2022-12-18T14:23:46;6.80;99.90
16863;DHT22;52193;48.216;-1.698;2022-12-18T14:26:23;6.80;99.90
16863;DHT22;52193;48.216;-1.698;2022-12-18T14:28:53;6.80;99.90
16863;DHT22;52193;48.216;-1.698;2022-12-18T14:31:24;6.80;99.90
16863;DHT22;52193;48.216;-1.698;2022-12-18T14:33:52;6.80;99.90
16863;DHT22;52193;48.216;-1.698;2022-12-18T14:36:20;6.80;99.90
16863;DHT22;52193;48.216;-1.698;2022-12-18T14:38:49;6.80;99.90
16863;DHT22;52193;48.216;-1.698;2022-12-18T14:41:18;6.80;99.90
16863;DHT22;52193;48.216;-1.698;2022-12-18T14:43:46;6.90;99.90
16863;DHT22;52193;48.216;-1.698;2022-12-18T14:46:32;6.90;99.90
16863;DHT22;52193;48.216;-1.698;2022-12-18T14:49:01;6.90;99.90
16863;DHT22;52193;48.216;-1.698;2022-12-18T14:51:30;6.90;99.90
16863;DHT22;52193;48.216;-1.698;2022-12-18T14:53:58;6.90;99.90
16863;DHT22;52193;48.216;-1.698;2022-12-18T14:56:28;7.00;99.90
16863;DHT22;52193;48.216;-1.698;2022-12-18T14:58:57;7.00;99.90
16863;DHT22;52193;48.216;-1.698;2022-12-18T15:01:28;7.00;99.90
16863;DHT22;52193;48.216;-1.698;2022-12-18T15:03:57;7.10;99.90
16863;DHT22;52193;48.216;-1.698;2022-12-18T15:06:30;7.10;99.90
16863;DHT22;52193;48.216;-1.698;2022-12-18T15:08:58;7.20;99.90
16863;DHT22;52193;48.216;-1.698;2022-12-18T15:11:43;7.20;99.90
16863;DHT22;52193;48.216;-1.698;2022-12-18T15:14:38;7.20;99.90
16863;DHT22;52193;48.216;-1.698;2022-12-18T15:17:16;7.30;99.90
16863;DHT22;52193;48.216;-1.698;2022-12-18T15:19:44;7.30;99.90
16863;DHT22;52193;48.216;-1.698;2022-12-18T15:22:20;7.40;99.90
16863;DHT22;52193;48.216;-1.698;2022-12-18T15:24:48;7.40;99.90
16863;DHT22;52193;48.216;-1.698;2022-12-18T15:27:23;7.40;99.90
16863;DHT22;52193;48.216;-1.698;2022-12-18T15:30:16;7.50;99.90
16863;DHT22;52193;48.216;-1.698;2022-12-18T15:32:45;7.60;99.90
16863;DHT22;52193;48.216;-1.698;2022-12-18T15:35:16;7.60;99.90
16863;DHT22;52193;48.216;-1.698;2022-12-18T15:37:44;7.50;99.90
16863;DHT22;52193;48.216;-1.698;2022-12-18T15:40:15;7.60;99.90
16863;DHT22;52193;48.216;-1.698;2022-12-18T15:42:43;7.60;99.90
16863;DHT22;52193;48.216;-1.698;2022-12-18T15:45:27;7.70;99.90
16863;DHT22;52193;48.216;-1.698;2022-12-18T15:47:56;7.70;99.90
16863;DHT22;52193;48.216;-1.698;2022-12-18T15:50:23;7.70;99.90
16863;DHT22;52193;48.216;-1.698;2022-12-18T15:52:52;7.70;99.90
16863;DHT22;52193;48.216;-1.698;2022-12-18T15:55:22;7.70;99.90
16863;DHT22;52193;48.216;-1.698;2022-12-18T15:58:15;7.70;99.90
16863;DHT22;52193;48.216;-1.698;2022-12-18T16:00:41;7.80;99.90